Mary Ann Moran — WDF4572 — position and weather

sailwx.info

Track history (hours):
 
Tides and Currents Weather Stations Pressure Air Temp Water Temp Dewpoint Dewpoint Depression Visibility Wind Speed Wind Dir Waves Ship Positions

Mary Ann Moran

Owner: MORAN TOWING CORPORATION, NEW CANAAN, CT. More information available from US FCC via Universal Licensing System and Coast Guard Vessel Documentation Center.

Last reported at 2015-Feb-04 15:28 UTC. Time now 2015-Mar-28 17:47 UTC.
Position N 27°15' W 083°02'.
Warning: this ship's position is 52 days out of date.

Length 170 m; draft 7 m.

Type: Tow > 200 m length. MMSI: 367453420.

Date/timePositionNaut miles runAvg speedWind from/ knotsBaromVisibWave heightAir tempDewpointWater temp
2015-Feb-04 15:28N 27°15' W 083°02'36 8.5
2015-Feb-04 11:14N 27°41' W 082°34'710.3
2015-Feb-04 10:33N 27°47' W 082°31'8 8.4
2015-Feb-04 09:33N 27°55' W 082°27'2 1.9
2015-Feb-04 08:33N 27°57' W 082°27'0 0.0
2015-Feb-04 07:33N 27°57' W 082°27'0 0.0
2015-Feb-04 06:33N 27°57' W 082°27'0 0.0
2015-Feb-04 05:33N 27°57' W 082°27'0 0.0
2015-Feb-04 04:33N 27°57' W 082°27'0 0.0
2015-Feb-04 03:33N 27°57' W 082°27'0 0.0
2015-Feb-04 02:33N 27°57' W 082°27'0 0.0
2015-Feb-04 01:33N 27°57' W 082°27'0 0.0
2015-Feb-04 00:33N 27°57' W 082°27'0 0.0
2015-Feb-03 23:33N 27°57' W 082°27'0 0.0
2015-Feb-03 22:33N 27°57' W 082°27'0 0.0
2015-Feb-03 21:33N 27°57' W 082°27'0 0.0
2015-Feb-03 20:33N 27°57' W 082°27'0 0.0
2015-Feb-03 19:33N 27°57' W 082°27'0 0.0
2015-Feb-03 18:33N 27°57' W 082°27'0 0.0
2015-Feb-03 17:33N 27°57' W 082°27'0 0.0
2015-Feb-03 16:33N 27°57' W 082°27'0 0.0
2015-Feb-03 15:33N 27°57' W 082°27'0 0.0
2015-Feb-03 14:33N 27°57' W 082°27'0 0.0
2015-Feb-03 13:33N 27°57' W 082°27'0 0.0
2015-Feb-03 12:33N 27°57' W 082°27'0 0.0
2015-Feb-03 11:33N 27°57' W 082°27'0 0.0
2015-Feb-03 10:33N 27°57' W 082°27'0 0.0
2015-Feb-03 09:33N 27°57' W 082°27'0 0.0
2015-Feb-03 08:33N 27°57' W 082°27'0 0.0
2015-Feb-03 07:33N 27°57' W 082°27'0 0.0
2015-Feb-03 06:33N 27°57' W 082°27'0 0.0
2015-Feb-03 05:33N 27°57' W 082°27'0 0.0
2015-Feb-03 04:33N 27°57' W 082°27'0 0.0
2015-Feb-03 03:33N 27°57' W 082°27'0 0.0
2015-Feb-03 02:33N 27°57' W 082°27'0 0.0
2015-Feb-03 01:33N 27°57' W 082°27'0 0.0
2015-Feb-03 00:33N 27°57' W 082°27'0 0.0
2015-Feb-02 23:33N 27°57' W 082°27'0 0.0
2015-Feb-02 22:33N 27°57' W 082°27'0 0.0
2015-Feb-02 21:33N 27°57' W 082°27'0 0.0
2015-Feb-02 20:33N 27°57' W 082°27'0 0.0
2015-Feb-02 19:33N 27°57' W 082°27'0 0.0
2015-Feb-02 18:33N 27°57' W 082°27'0 0.0
2015-Feb-02 17:33N 27°57' W 082°27'0 0.0
2015-Feb-02 16:33N 27°57' W 082°27'0 0.0
2015-Feb-02 15:33N 27°57' W 082°27'0 0.0
2015-Feb-02 14:33N 27°57' W 082°27'0 0.0
2015-Feb-02 13:33N 27°57' W 082°27'0 0.0
2015-Feb-02 12:33N 27°57' W 082°27'0 0.0
2015-Feb-02 11:33N 27°57' W 082°27'0 0.0
2015-Feb-02 10:33N 27°57' W 082°27'0 0.0
2015-Feb-02 09:33N 27°57' W 082°27'0 0.0
2015-Feb-02 08:33N 27°57' W 082°27'0 0.0
2015-Feb-02 07:33N 27°57' W 082°27'0 0.0
2015-Feb-02 06:33N 27°57' W 082°27'0 0.0
2015-Feb-02 05:33N 27°57' W 082°27'0 0.0
2015-Feb-02 04:33N 27°57' W 082°27'0 0.0
2015-Feb-02 03:32N 27°57' W 082°27'0 0.0
2015-Feb-02 02:32N 27°57' W 082°27'0 0.0
2015-Feb-02 01:33N 27°57' W 082°27'0 0.0
2015-Feb-02 00:33N 27°57' W 082°27'0 0.0
2015-Feb-01 23:33N 27°57' W 082°27'0 0.0
2015-Feb-01 22:33N 27°57' W 082°27'0 0.0
2015-Feb-01 21:33N 27°57' W 082°27'0 0.0
2015-Feb-01 20:33N 27°57' W 082°27'0 0.0
2015-Feb-01 19:33N 27°57' W 082°27'0 0.0
2015-Feb-01 18:33N 27°57' W 082°27'0 0.0
2015-Feb-01 17:33N 27°57' W 082°27'0 0.0
2015-Feb-01 16:33N 27°57' W 082°27'0 0.0
2015-Feb-01 15:33N 27°57' W 082°27'0 0.0
2015-Feb-01 14:33N 27°57' W 082°27'0 0.0
2015-Feb-01 13:33N 27°57' W 082°27'0 0.0
2015-Feb-01 12:33N 27°57' W 082°27'1 0.7
2015-Feb-01 11:33N 27°56' W 082°27'5 5.3
2015-Feb-01 10:33N 27°51' W 082°27'8 7.7
2015-Feb-01 09:33N 27°45' W 082°32'  
Track history (hours):
 
Tides and Currents Weather Stations Pressure Air Temp Water Temp Dewpoint Dewpoint Depression Visibility Wind Speed Wind Dir Waves Ship Positions

Mary Ann Moran

Owner: MORAN TOWING CORPORATION, NEW CANAAN, CT. More information available from US FCC via Universal Licensing System and Coast Guard Vessel Documentation Center.

Last reported at 2015-Feb-04 15:28 UTC. Time now 2015-Mar-28 17:47 UTC.
Position N 27°15' W 083°02'.
Warning: this ship's position is 52 days out of date.

Length 170 m; draft 7 m.

Type: Tow > 200 m length. MMSI: 367453420.

Date/timePositionNaut miles runAvg speedWind from/ knotsBaromVisibWave heightAir tempDewpointWater temp
2015-Feb-04 15:28N 27°15' W 083°02'36 8.5
2015-Feb-04 11:14N 27°41' W 082°34'710.3
2015-Feb-04 10:33N 27°47' W 082°31'8 8.4
2015-Feb-04 09:33N 27°55' W 082°27'2 1.9
2015-Feb-04 08:33N 27°57' W 082°27'0 0.0
2015-Feb-04 07:33N 27°57' W 082°27'0 0.0
2015-Feb-04 06:33N 27°57' W 082°27'0 0.0
2015-Feb-04 05:33N 27°57' W 082°27'0 0.0
2015-Feb-04 04:33N 27°57' W 082°27'0 0.0
2015-Feb-04 03:33N 27°57' W 082°27'0 0.0
2015-Feb-04 02:33N 27°57' W 082°27'0 0.0
2015-Feb-04 01:33N 27°57' W 082°27'0 0.0
2015-Feb-04 00:33N 27°57' W 082°27'0 0.0
2015-Feb-03 23:33N 27°57' W 082°27'0 0.0
2015-Feb-03 22:33N 27°57' W 082°27'0 0.0
2015-Feb-03 21:33N 27°57' W 082°27'0 0.0
2015-Feb-03 20:33N 27°57' W 082°27'0 0.0
2015-Feb-03 19:33N 27°57' W 082°27'0 0.0
2015-Feb-03 18:33N 27°57' W 082°27'0 0.0
2015-Feb-03 17:33N 27°57' W 082°27'0 0.0
2015-Feb-03 16:33N 27°57' W 082°27'0 0.0
2015-Feb-03 15:33N 27°57' W 082°27'0 0.0
2015-Feb-03 14:33N 27°57' W 082°27'0 0.0
2015-Feb-03 13:33N 27°57' W 082°27'0 0.0
2015-Feb-03 12:33N 27°57' W 082°27'0 0.0
2015-Feb-03 11:33N 27°57' W 082°27'0 0.0
2015-Feb-03 10:33N 27°57' W 082°27'0 0.0
2015-Feb-03 09:33N 27°57' W 082°27'0 0.0
2015-Feb-03 08:33N 27°57' W 082°27'0 0.0
2015-Feb-03 07:33N 27°57' W 082°27'0 0.0
2015-Feb-03 06:33N 27°57' W 082°27'0 0.0
2015-Feb-03 05:33N 27°57' W 082°27'0 0.0
2015-Feb-03 04:33N 27°57' W 082°27'0 0.0
2015-Feb-03 03:33N 27°57' W 082°27'0 0.0
2015-Feb-03 02:33N 27°57' W 082°27'0 0.0
2015-Feb-03 01:33N 27°57' W 082°27'0 0.0
2015-Feb-03 00:33N 27°57' W 082°27'0 0.0
2015-Feb-02 23:33N 27°57' W 082°27'0 0.0
2015-Feb-02 22:33N 27°57' W 082°27'0 0.0
2015-Feb-02 21:33N 27°57' W 082°27'0 0.0
2015-Feb-02 20:33N 27°57' W 082°27'0 0.0
2015-Feb-02 19:33N 27°57' W 082°27'0 0.0
2015-Feb-02 18:33N 27°57' W 082°27'0 0.0
2015-Feb-02 17:33N 27°57' W 082°27'0 0.0
2015-Feb-02 16:33N 27°57' W 082°27'0 0.0
2015-Feb-02 15:33N 27°57' W 082°27'0 0.0
2015-Feb-02 14:33N 27°57' W 082°27'0 0.0
2015-Feb-02 13:33N 27°57' W 082°27'0 0.0
2015-Feb-02 12:33N 27°57' W 082°27'0 0.0
2015-Feb-02 11:33N 27°57' W 082°27'0 0.0
2015-Feb-02 10:33N 27°57' W 082°27'0 0.0
2015-Feb-02 09:33N 27°57' W 082°27'0 0.0
2015-Feb-02 08:33N 27°57' W 082°27'0 0.0
2015-Feb-02 07:33N 27°57' W 082°27'0 0.0
2015-Feb-02 06:33N 27°57' W 082°27'0 0.0
2015-Feb-02 05:33N 27°57' W 082°27'0 0.0
2015-Feb-02 04:33N 27°57' W 082°27'0 0.0
2015-Feb-02 03:32N 27°57' W 082°27'0 0.0
2015-Feb-02 02:32N 27°57' W 082°27'0 0.0
2015-Feb-02 01:33N 27°57' W 082°27'0 0.0
2015-Feb-02 00:33N 27°57' W 082°27'0 0.0
2015-Feb-01 23:33N 27°57' W 082°27'0 0.0
2015-Feb-01 22:33N 27°57' W 082°27'0 0.0
2015-Feb-01 21:33N 27°57' W 082°27'0 0.0
2015-Feb-01 20:33N 27°57' W 082°27'0 0.0
2015-Feb-01 19:33N 27°57' W 082°27'0 0.0
2015-Feb-01 18:33N 27°57' W 082°27'0 0.0
2015-Feb-01 17:33N 27°57' W 082°27'0 0.0
2015-Feb-01 16:33N 27°57' W 082°27'0 0.0
2015-Feb-01 15:33N 27°57' W 082°27'0 0.0
2015-Feb-01 14:33N 27°57' W 082°27'0 0.0
2015-Feb-01 13:33N 27°57' W 082°27'0 0.0
2015-Feb-01 12:33N 27°57' W 082°27'1 0.7
2015-Feb-01 11:33N 27°56' W 082°27'5 5.3
2015-Feb-01 10:33N 27°51' W 082°27'8 7.7
2015-Feb-01 09:33N 27°45' W 082°32'  

Dump ship's entire track history